KPEQ

Pecos Municipal Airport

Pecos, Texas, USA
METAR KPEQ 181515Z AUTO 33009KT 10SM CLR M04/M15 A3037 RMK AO2 T10421150
Observed Flight Rules
Jan-18 @ 15:15 UTC (19 minutes ago) Visual Flight Rules
Wind Visibility Clouds
330° at 9 knots 10 miles
  • Clear skies
Temperatures Readings
Current -4°C / 25°F
Dewpoint -15°C / 5°F
Humidity 42%
Altimeter 30.37" Hg
Pressure 1028 hPa
Elevation 797
METAR KPEQ 181515Z AUTO 33009KT 10SM CLR M04/M15 A3037 RMK AO2 T10421150
Observed Flight Rules
Jan-18 @ 15:15 UTC
(19 minutes ago)
VFR
Wind Visibility
330° at 9 knots 10 miles
Clouds
  • Clear skies
Temperature Dewpoint
-4°C / 25°F -15°C / 5°F
Humidity Altimeter Pressure
42% 30.37" Hg 1028 hPa